Latest Weather Observations for Horsley Park

IDN60901

Issued at 9:01 pm EDT Monday 8 February 2016 (issued every 10 minutes, with the page automatically refreshed every 10 minutes)

About weather observations | Map of Sydney area stations | Latest observations for Sydney area | Other Formats
Station Details ID: 067119 Name: HORSLEY PARK EQUESTRIAN CENTRE AWS Lat: -33.85 Lon: 150.86 Height: 100.0 m
Data from the previous 72 hours. | See also: Recent months at Horsley Park
Date/Time
EDT
Tmp

°C
App
Tmp
°C
Dew
Point
°C
Rel
Hum
%
Delta-T

°C
Wind Press
QNH
hPa
Press
MSL
hPa
Rain
since
9 am
mm
Dir
 
Spd
km/h
Gust
km/h
Spd
kts
Gust
kts
08/09:00pm 21.4 22.2 17.2 77 2.6 SE 9 13 5 7 - - 0.0
08/08:30pm 22.1 22.2 16.4 70 3.5 SE 11 15 6 8 - - 0.0
08/08:00pm 22.8 22.5 15.4 63 4.4 SE 11 17 6 9 - - 0.0
08/07:30pm 23.7 23.1 14.7 57 5.4 SE 11 17 6 9 - - 0.0
08/07:00pm 24.9 23.5 14.4 52 6.3 ESE 15 22 8 12 - - 0.0
08/06:30pm 25.7 23.9 14.5 50 6.7 SE 17 22 9 12 - - 0.0
08/06:00pm 26.5 25.1 14.6 48 7.2 ESE 15 24 8 13 - - 0.0
08/05:30pm 27.0 26.3 15.4 49 7.1 SE 13 22 7 12 - - 0.0
08/05:00pm 27.3 26.7 15.7 49 7.1 SE 13 20 7 11 - - 0.0
08/04:30pm 27.9 27.1 16.2 49 7.3 ESE 15 22 8 12 - - 0.0
08/04:00pm 28.5 28.8 17.1 50 7.2 ESE 11 20 6 11 - - 0.0
08/03:30pm 28.2 27.9 14.4 42 8.3 ESE 9 20 5 11 - - 0.0
08/03:00pm 28.6 29.0 15.2 44 8.2 SE 7 15 4 8 - - 0.0
08/02:30pm 28.8 30.2 16.4 47 7.7 SE 4 11 2 6 - - 0.0
08/02:00pm 27.8 27.5 14.4 43 8.1 ESE 9 19 5 10 - - 0.0
08/01:30pm 28.0 29.1 16.6 50 7.1 SE 6 13 3 7 - - 0.0
08/01:00pm 27.0 27.5 15.1 48 7.2 SE 6 13 3 7 - - 0.0
08/12:30pm 26.6 27.4 14.7 48 7.2 NNE 4 7 2 4 - - 0.0
08/12:00pm 26.7 27.4 15.7 51 6.7 ESE 6 13 3 7 - - 0.0
08/11:30am 25.9 27.0 16.7 57 5.7 SW 6 11 3 6 - - 0.0
08/11:00am 25.3 26.6 16.2 57 5.6 S 4 9 2 5 - - 0.0
08/10:30am 24.1 24.7 15.9 60 5.0 SSW 7 13 4 7 - - 0.0
08/10:00am 23.6 24.5 16.1 62 4.6 SSE 6 13 3 7 - - 0.0
08/09:30am 22.8 24.2 17.3 71 3.4 SW 6 9 3 5 - - 0.0
08/09:00am 21.5 21.9 16.2 72 3.2 SW 9 11 5 6 - - 0.0
08/08:30am 20.3 20.3 16.3 78 2.4 SW 11 17 6 9 - - 0.0
08/08:00am 19.6 20.0 16.4 82 1.9 SW 9 13 5 7 - - 0.0
08/07:30am 18.6 18.5 16.0 85 1.6 SW 11 17 6 9 - - 0.0
08/07:00am 17.6 17.8 15.8 89 1.1 SW 9 11 5 6 - - 0.0
08/06:30am 17.2 17.3 15.5 90 1.0 SW 9 15 5 8 - - 0.0
08/06:00am 17.3 17.4 15.6 90 1.0 SW 9 13 5 7 - - 0.0
08/05:30am 17.4 17.6 15.7 90 1.0 SW 9 15 5 8 - - 0.0
08/05:00am 17.7 17.7 16.2 91 0.9 SW 11 17 6 9 - - 0.0
08/04:30am 17.6 17.9 15.9 90 1.0 SW 9 13 5 7 - - 0.0
08/04:00am 17.9 19.0 16.6 92 0.8 SW 6 9 3 5 - - 0.0
08/03:30am 17.8 18.7 16.7 93 0.7 SSW 7 9 4 5 - - 0.0
08/03:00am 17.5 19.7 16.4 93 0.7 CALM 0 0 0 0 - - 0.0
08/02:30am 17.4 19.5 16.3 93 0.7 CALM 0 0 0 0 - - 0.0
08/02:00am 18.0 20.4 17.0 94 0.6 CALM 0 2 0 1 - - 0.0
08/01:30am 17.8 19.3 16.7 93 0.7 SW 4 6 2 3 - - 0.0
08/01:00am 17.9 19.4 16.6 92 0.8 SW 4 6 2 3 - - 0.0
08/12:30am 17.8 19.8 16.1 90 1.0 CALM 0 0 0 0 - - 0.0
08/12:00am 18.3 20.5 16.5 89 1.1 CALM 0 0 0 0 - - 0.0
 
Date/Time
EDT
Tmp

°C
App
Tmp
°C
Dew
Point
°C
Rel
Hum
%
Delta-T

°C
Wind Press
QNH
hPa
Press
MSL
hPa
Rain
since
9 am
mm
Dir
 
Spd
km/h
Gust
km/h
Spd
kts
Gust
kts
07/11:30pm 18.8 21.1 16.8 88 1.2 CALM 0 0 0 0 - - 0.0
07/11:00pm 19.4 21.8 17.0 86 1.5 CALM 0 0 0 0 - - 0.0
07/10:30pm 20.0 22.4 17.0 83 1.8 CALM 0 2 0 1 - - 0.0
07/10:00pm 19.6 21.0 16.3 81 2.0 SSE 4 6 2 3 - - 0.0
07/09:30pm 20.7 22.1 16.3 76 2.7 SE 4 6 2 3 - - 0.0
07/09:00pm 21.2 22.1 16.0 72 3.1 SE 6 9 3 5 - - 0.0
07/08:30pm 21.7 22.2 15.5 68 3.7 SE 7 13 4 7 - - 0.0
07/08:00pm 22.3 22.4 15.6 66 4.0 SE 9 17 5 9 - - 0.0
07/07:30pm 23.1 22.2 14.9 60 4.9 SE 13 19 7 10 - - 0.0
07/07:00pm 23.9 23.1 15.1 58 5.3 ESE 13 19 7 10 - - 0.0
07/06:30pm 24.6 23.5 15.2 55 5.7 SE 15 20 8 11 - - 0.0
07/06:00pm 25.3 24.7 15.6 55 5.9 SE 13 22 7 12 - - 0.0
07/05:30pm 25.7 25.0 15.4 53 6.3 ESE 13 22 7 12 - - 0.0
07/05:00pm 25.8 25.6 16.6 56 5.7 ESE 13 20 7 11 - - 0.0
07/04:30pm 26.2 25.8 16.2 54 6.2 ESE 13 22 7 12 - - 0.0
07/04:00pm 26.2 25.6 16.7 56 5.9 SE 15 28 8 15 - - 0.0
07/03:30pm 26.2 26.2 17.3 58 5.6 ESE 13 20 7 11 - - 0.0
07/03:00pm 26.5 26.2 17.3 57 5.8 SE 15 24 8 13 - - 0.0
07/02:30pm 25.0 24.5 15.9 57 5.6 ESE 13 20 7 11 - - 0.0
07/02:00pm 26.6 27.2 17.7 58 5.6 ESE 11 20 6 11 - - 0.0
07/01:30pm 26.1 26.2 16.6 55 5.9 ENE 11 19 6 10 - - 0.0
07/01:00pm 25.7 25.3 16.3 56 5.8 E 13 20 7 11 - - 0.0
07/12:30pm 25.0 25.3 15.0 53 6.0 E 7 15 4 8 - - 0.0
07/12:00pm 26.0 26.2 16.8 57 5.7 E 11 17 6 9 - - 0.0
07/11:30am 25.5 25.6 16.6 58 5.5 E 11 17 6 9 - - 0.0
07/11:00am 24.7 25.3 16.7 61 4.9 SE 9 17 5 9 - - 0.0
07/10:30am 24.9 26.0 17.1 62 4.9 E 7 11 4 6 - - 0.0
07/10:00am 23.5 23.5 16.3 64 4.4 SSE 11 19 6 10 - - 0.0
07/09:30am 23.1 24.3 16.9 68 3.8 SSE 6 11 3 6 - - 0.0
07/09:00am 22.0 23.0 16.9 73 3.1 S 7 13 4 7 - - 4.2
07/08:30am 21.6 22.8 17.4 77 2.6 S 7 13 4 7 - - 4.2
07/08:00am 20.2 20.8 16.8 81 2.1 SSW 9 13 5 7 - - 4.2
07/07:30am 18.2 18.5 16.0 87 1.3 SW 9 11 5 6 - - 4.2
07/07:00am 17.6 18.2 15.8 89 1.1 SW 7 11 4 6 - - 4.2
07/06:30am 17.6 18.2 15.8 89 1.1 SW 7 9 4 5 - - 4.2
07/06:00am 17.2 18.2 15.4 89 1.1 SSW 4 7 2 4 - - 4.2
07/05:30am 17.0 17.6 15.2 89 1.1 SW 6 7 3 4 - - 4.2
07/05:00am 16.8 17.2 14.8 88 1.2 SW 6 9 3 5 - - 4.2
07/04:30am 17.1 17.4 14.9 87 1.3 SSW 7 9 4 5 - - 4.2
07/04:00am 17.3 17.6 14.9 86 1.4 SW 7 11 4 6 - - 4.2
07/03:30am 18.1 18.5 15.4 84 1.6 SW 7 11 4 6 - - 4.2
07/03:00am 17.9 18.5 15.2 84 1.6 SW 6 9 3 5 - - 4.2
07/02:30am 17.5 17.8 15.0 85 1.5 SSW 7 9 4 5 - - 4.2
07/02:00am 18.0 18.0 15.1 83 1.7 SW 9 11 5 6 - - 4.2
07/01:30am 18.2 18.6 15.3 83 1.7 SW 7 9 4 5 - - 4.2
07/01:00am 18.5 18.9 15.4 82 1.8 SW 7 11 4 6 - - 4.2
07/12:30am 18.8 19.7 16.0 84 1.7 SSW 6 6 3 3 - - 4.2
07/12:00am 18.3 19.5 15.9 86 1.4 SSW 4 6 2 3 - - 4.2
 
Date/Time
EDT
Tmp

°C
App
Tmp
°C
Dew
Point
°C
Rel
Hum
%
Delta-T

°C
Wind Press
QNH
hPa
Press
MSL
hPa
Rain
since
9 am
mm
Dir
 
Spd
km/h
Gust
km/h
Spd
kts
Gust
kts
06/11:30pm 18.0 18.5 15.1 83 1.7 S 6 9 3 5 - - 4.2
06/11:00pm 18.4 19.1 15.5 83 1.7 S 6 7 3 4 - - 4.2
06/10:30pm 18.2 18.8 15.3 83 1.7 S 6 7 3 4 - - 4.2
06/10:00pm 18.1 19.0 15.0 82 1.8 S 4 6 2 3 - - 4.2
06/09:30pm 19.7 20.1 14.7 73 2.9 SE 6 7 3 4 - - 4.2
06/09:00pm 20.1 20.5 14.7 71 3.2 SE 6 9 3 5 - - 4.2
06/08:30pm 20.9 20.7 14.8 68 3.6 SE 9 15 5 8 - - 4.2
06/08:00pm 21.3 21.0 14.5 65 4.0 SE 9 19 5 10 - - 4.2
06/07:30pm 21.9 20.9 14.5 63 4.4 SE 13 22 7 12 - - 4.2
06/07:00pm 22.6 20.3 14.2 59 4.9 SE 19 32 10 17 - - 4.2
06/06:30pm 23.3 21.0 14.0 56 5.5 SE 19 28 10 15 - - 4.2
06/06:00pm 23.7 21.7 14.9 57 5.3 SE 19 28 10 15 - - 4.2
06/05:30pm 23.9 21.0 14.0 54 5.8 SE 22 32 12 17 - - 4.2
06/05:00pm 24.7 22.5 14.5 53 6.1 SE 19 32 10 17 - - 4.2
06/04:30pm 24.8 22.4 14.3 52 6.2 SE 20 30 11 16 - - 4.2
06/04:00pm 24.6 23.1 15.2 55 5.7 SE 17 28 9 15 - - 4.2
06/03:30pm 24.9 22.9 15.5 56 5.7 SE 20 32 11 17 - - 4.2
06/03:00pm 24.0 21.5 14.1 54 5.8 SE 20 32 11 17 - - 4.2
06/02:30pm 25.4 24.0 16.5 58 5.5 SE 19 35 10 19 - - 4.2
06/02:00pm 24.1 23.4 16.4 62 4.7 SE 15 28 8 15 - - 4.2
06/01:30pm 23.2 21.9 15.8 63 4.5 SSE 17 28 9 15 - - 4.2
06/01:00pm 23.8 25.0 19.1 75 3.0 S 11 22 6 12 - - 4.2
06/12:30pm 22.2 23.5 19.4 84 1.8 SSW 11 19 6 10 - - 4.2
06/12:00pm 20.6 21.5 18.4 87 1.4 SSW 11 20 6 11 - - 4.2
06/11:30am 20.8 22.6 19.5 92 0.8 SW 9 15 5 8 - - 2.8
06/11:00am 19.2 19.9 18.0 93 0.7 SSW 11 19 6 10 - - 2.6
06/10:30am 19.3 19.6 17.8 91 0.9 SSW 13 20 7 11 - - 1.4
06/10:00am 19.4 20.1 17.9 91 0.9 SSW 11 19 6 10 - - 1.0
06/09:30am 18.8 20.4 16.8 88 1.2 S 4 11 2 6 - - 0.6
06/09:00am 19.5 21.5 16.0 80 2.1 CALM 0 4 0 2 - - 0.0
06/08:30am 19.6 20.0 15.3 76 2.5 SW 7 11 4 6 - - 0.0
06/08:00am 19.4 19.4 15.1 76 2.5 SW 9 13 5 7 - - 0.0
06/07:30am 18.7 18.5 14.6 77 2.4 SW 9 13 5 7 - - 0.0
06/07:00am 18.0 17.7 14.3 79 2.1 SW 9 13 5 7 - - 0.0
06/06:30am 17.6 17.2 14.1 80 2.0 SW 9 13 5 7 - - 0.0
06/06:00am 17.4 16.9 13.9 80 2.0 SSW 9 15 5 8 - - 0.0
06/05:30am 17.2 17.0 13.5 79 2.1 SW 7 11 4 6 - - 0.0
06/05:00am 17.6 16.9 13.3 76 2.4 SW 9 13 5 7 - - 0.0
06/04:30am 17.8 16.8 13.5 76 2.4 SW 11 15 6 8 - - 0.0
06/04:00am 17.7 16.3 13.4 76 2.4 SW 13 17 7 9 - - 0.0
06/03:30am 17.6 16.2 13.5 77 2.3 SW 13 17 7 9 - - 0.0
06/03:00am 17.7 16.8 13.8 78 2.2 SW 11 17 6 9 - - 0.0
06/02:30am 17.8 17.4 14.1 79 2.1 SW 9 15 5 8 - - 0.0
06/02:00am 18.2 17.9 14.3 78 2.3 SW 9 13 5 7 - - 0.0
06/01:30am 18.7 18.4 14.4 76 2.5 SW 9 13 5 7 - - 0.0
06/01:00am 19.0 19.0 14.3 74 2.7 SW 7 9 4 5 - - 0.0
06/12:30am 19.4 19.5 14.4 73 2.9 SW 7 13 4 7 - - 0.0
06/12:00am 19.2 19.6 14.7 75 2.6 SSW 6 9 3 5 - - 0.0
 
Date/Time
EDT
Tmp

°C
App
Tmp
°C
Dew
Point
°C
Rel
Hum
%
Delta-T

°C
Wind Press
QNH
hPa
Press
MSL
hPa
Rain
since
9 am
mm
Dir
 
Spd
km/h
Gust
km/h
Spd
kts
Gust
kts
05/11:30pm 19.6 19.8 14.2 71 3.1 SSW 6 9 3 5 - - 0.0
05/11:00pm 19.5 19.5 13.7 69 3.3 SSW 6 9 3 5 - - 0.0
05/10:30pm 19.9 20.0 13.8 68 3.5 S 6 11 3 6 - - 0.0
05/10:00pm 20.3 19.9 14.2 68 3.6 SSE 9 17 5 9 - - 0.0
05/09:30pm 20.8 20.2 14.7 68 3.6 S 11 22 6 12 - - 0.0

Latest Capital City Observations: Canberra | Sydney | Melbourne | Brisbane | Adelaide | Perth | Hobart | Darwin

Other Formats:

Comma delimited format used in spreadsheet applications
http://www.bom.gov.au/fwo/IDN60901/IDN60901.94760.axf

JavaScript Object Notation format (JSON) in row-major order
http://www.bom.gov.au/fwo/IDN60901/IDN60901.94760.json